首页
METAR-TAF:

METAR-TAF

机场 :

安東尼奧·汪帕特國際機場

阿加尼亚, 關島, 美国

纬度: 13-29N, 经度: 144-48E, 海拔: 91米

当前天气观测

该预报发布于36分钟前的14:54 UTC
风速12节,风向,有时为16节阵风
温度 27°C
湿度 100%
气压 1006 hPa
能見度: 14.5公里
少量云层高于2100英尺
散云层高于2600英尺
多云层高于3600英尺

METAR: PGUM 161454Z 18012G16KT 9SM FEW021 SCT026 BKN036 27/27 A2970 RMK AO2 RAB32E45 SLP048 P0003 60003 T02720272 56006

时间: 01:30 (15:30 UTC)

预报

该预报发布于4小时和2分钟前的11:28 UTC
预报有效从16日的 12点(UTC)到 17日的 18点(UTC)
风速12节,风向,有时为23节阵风
能見度: 10公里
少量云层高于1200英尺
多云层高于3500英尺
阴天层高于9000英尺
附近有阵雨
短暂存在
从 16日的 12点(UTC)到 16日的 16点(UTC)
能見度: 4.8公里
多云层高于2100英尺
阴天层高于3500英尺
大阵雨
从 16日的 1600点(UTC)
风速11节,风向南转西南,有时为20节阵风
能見度: 10公里
散云层高于1500英尺
多云层高于4500英尺
阴天层高于11000英尺
附近有阵雨
短暂存在
从 16日的 16点(UTC)到 16日的 20点(UTC)
能見度: 8.0公里
多云层高于2500英尺
阴天层高于4000英尺
大阵雨
从 17日的 0100点(UTC)
风速15节,风向西南
能見度: 10公里
散云层高于1800英尺
散云层高于3000英尺
多云层高于12000英尺
附近有阵雨

TAF: PGUM 161128Z 1612/1718 18012G23KT P6SM VCSH FEW012 BKN035 OVC090 TEMPO 1612/1616 3SM +SHRA BKN021 OVC035 FM161600 20011G20KT P6SM VCSH SCT015 BKN045 OVC110 TEMPO 1616/1620 5SM +SHRA BKN025 OVC040 FM170100 22015KT P6SM VCSH SCT018 SCT030 BKN120

超过4000个机场的气象观测和天气预报(METAR&TAF报告)。

可查询的气象台以黄色和红色小点在地图上表示。

将鼠标移到小点上方,可查看气象台名称。

然后点击查看天气观测和预报。

如需切换地图:点击带黑十字的绿色按钮放大地图;点击带横线的绿色按钮缩小地图;或者点击绿色箭头查看邻近地区的地图。


METAR-TAF: